Coalvale, Kansas
Current Conditions -  °F | °C
As of 2:55 AM on Wednesday 26 Nov 2014 (Local Time) from KPTS Reporting Station
Overcast Overcast  
Wind Chill: 34°   Ceiling: 11000
Heat Index: 39°   Visibility: 10mi
Dew Point: 26°   Wind: 7mph
Humidity: 59%   Direction: 190°S
Pressure: 29.96"   Gusts: NA
Location:  37.6277°N, 94.7013°W
Report Text: KPTS 260855Z AUTO 19006KT 10SM OVC110 04/M03 A2996 RMK AO2 T00381035
Loading
Personal Weather Stations






























Interactive Weather Map New forecast layout! Learn more

10-Day Weather Forecast

Advertisements
Track Severe Weather on mobile